sensor_id;sensor_type;location;lat;lon;timestamp;P1;durP1;ratioP1;P2;durP2;ratioP2
64875;SDS011;51369;49.862;9.908;2023-05-07T00:00:18;3.30;;;1.90;;
64875;SDS011;51369;49.862;9.908;2023-05-07T00:02:46;4.38;;;2.25;;
64875;SDS011;51369;49.862;9.908;2023-05-07T00:05:11;2.70;;;2.20;;
64875;SDS011;51369;49.862;9.908;2023-05-07T00:07:37;3.20;;;2.63;;
64875;SDS011;51369;49.862;9.908;2023-05-07T00:10:03;2.58;;;2.38;;
64875;SDS011;51369;49.862;9.908;2023-05-07T00:12:31;2.10;;;1.92;;
64875;SDS011;51369;49.862;9.908;2023-05-07T00:14:58;2.95;;;2.17;;
64875;SDS011;51369;49.862;9.908;2023-05-07T00:17:24;3.55;;;2.25;;
64875;SDS011;51369;49.862;9.908;2023-05-07T00:19:50;5.35;;;2.70;;
64875;SDS011;51369;49.862;9.908;2023-05-07T00:22:15;3.13;;;2.50;;
64875;SDS011;51369;49.862;9.908;2023-05-07T00:24:41;2.55;;;2.20;;
64875;SDS011;51369;49.862;9.908;2023-05-07T00:27:06;3.03;;;2.17;;
64875;SDS011;51369;49.862;9.908;2023-05-07T00:29:32;2.70;;;2.40;;
64875;SDS011;51369;49.862;9.908;2023-05-07T00:31:57;2.38;;;2.17;;
64875;SDS011;51369;49.862;9.908;2023-05-07T00:34:22;3.78;;;2.17;;
64875;SDS011;51369;49.862;9.908;2023-05-07T00:36:48;4.88;;;2.10;;
64875;SDS011;51369;49.862;9.908;2023-05-07T00:39:13;4.53;;;2.40;;
64875;SDS011;51369;49.862;9.908;2023-05-07T00:41:39;2.63;;;2.22;;
64875;SDS011;51369;49.862;9.908;2023-05-07T00:44:04;2.17;;;1.98;;
64875;SDS011;51369;49.862;9.908;2023-05-07T00:46:30;3.42;;;2.10;;
64875;SDS011;51369;49.862;9.908;2023-05-07T00:48:56;4.88;;;2.35;;
64875;SDS011;51369;49.862;9.908;2023-05-07T00:51:22;2.70;;;2.50;;
64875;SDS011;51369;49.862;9.908;2023-05-07T00:53:50;5.43;;;2.55;;
64875;SDS011;51369;49.862;9.908;2023-05-07T00:56:15;3.28;;;2.42;;
64875;SDS011;51369;49.862;9.908;2023-05-07T00:58:41;2.50;;;2.17;;
64875;SDS011;51369;49.862;9.908;2023-05-07T01:01:07;5.32;;;2.75;;
64875;SDS011;51369;49.862;9.908;2023-05-07T01:03:33;4.50;;;2.35;;
64875;SDS011;51369;49.862;9.908;2023-05-07T01:05:58;3.17;;;2.22;;
64875;SDS011;51369;49.862;9.908;2023-05-07T01:08:26;3.35;;;2.28;;
64875;SDS011;51369;49.862;9.908;2023-05-07T01:10:55;4.30;;;2.42;;
64875;SDS011;51369;49.862;9.908;2023-05-07T01:13:22;2.83;;;2.10;;
64875;SDS011;51369;49.862;9.908;2023-05-07T01:15:49;2.97;;;2.38;;
64875;SDS011;51369;49.862;9.908;2023-05-07T01:18:15;4.07;;;2.42;;
64875;SDS011;51369;49.862;9.908;2023-05-07T01:20:41;3.30;;;2.45;;
64875;SDS011;51369;49.862;9.908;2023-05-07T01:23:07;3.28;;;2.28;;
64875;SDS011;51369;49.862;9.908;2023-05-07T01:25:36;2.45;;;2.25;;
64875;SDS011;51369;49.862;9.908;2023-05-07T01:28:02;3.42;;;2.45;;
64875;SDS011;51369;49.862;9.908;2023-05-07T01:30:30;2.50;;;2.30;;
64875;SDS011;51369;49.862;9.908;2023-05-07T01:32:58;3.28;;;2.38;;
64875;SDS011;51369;49.862;9.908;2023-05-07T01:35:37;3.25;;;2.45;;
64875;SDS011;51369;49.862;9.908;2023-05-07T01:38:05;3.72;;;2.83;;
64875;SDS011;51369;49.862;9.908;2023-05-07T01:40:33;3.97;;;2.70;;
64875;SDS011;51369;49.862;9.908;2023-05-07T01:42:59;6.28;;;2.20;;
64875;SDS011;51369;49.862;9.908;2023-05-07T01:45:26;3.28;;;2.25;;
64875;SDS011;51369;49.862;9.908;2023-05-07T01:47:52;3.25;;;2.30;;
64875;SDS011;51369;49.862;9.908;2023-05-07T01:50:19;3.28;;;2.78;;
64875;SDS011;51369;49.862;9.908;2023-05-07T01:52:46;4.63;;;2.42;;
64875;SDS011;51369;49.862;9.908;2023-05-07T01:55:13;5.68;;;2.33;;
64875;SDS011;51369;49.862;9.908;2023-05-07T01:57:38;3.65;;;2.80;;
64875;SDS011;51369;49.862;9.908;2023-05-07T02:00:04;4.00;;;2.80;;
64875;SDS011;51369;49.862;9.908;2023-05-07T02:02:40;4.30;;;2.70;;
64875;SDS011;51369;49.862;9.908;2023-05-07T02:05:08;6.05;;;2.42;;
64875;SDS011;51369;49.862;9.908;2023-05-07T02:07:36;2.90;;;2.60;;
64875;SDS011;51369;49.862;9.908;2023-05-07T02:10:01;5.10;;;2.60;;
64875;SDS011;51369;49.862;9.908;2023-05-07T02:12:28;4.30;;;2.60;;
64875;SDS011;51369;49.862;9.908;2023-05-07T02:14:53;2.85;;;2.55;;
64875;SDS011;51369;49.862;9.908;2023-05-07T02:17:19;6.57;;;3.08;;
64875;SDS011;51369;49.862;9.908;2023-05-07T02:19:44;3.97;;;2.83;;
64875;SDS011;51369;49.862;9.908;2023-05-07T02:22:10;3.35;;;3.05;;
64875;SDS011;51369;49.862;9.908;2023-05-07T02:24:35;7.25;;;3.50;;
64875;SDS011;51369;49.862;9.908;2023-05-07T02:27:01;7.38;;;3.47;;
64875;SDS011;51369;49.862;9.908;2023-05-07T02:29:27;6.07;;;3.05;;
64875;SDS011;51369;49.862;9.908;2023-05-07T02:31:53;4.80;;;3.03;;
64875;SDS011;51369;49.862;9.908;2023-05-07T02:34:18;5.70;;;2.90;;
64875;SDS011;51369;49.862;9.908;2023-05-07T02:36:44;3.35;;;3.05;;
64875;SDS011;51369;49.862;9.908;2023-05-07T02:39:13;3.67;;;3.08;;
64875;SDS011;51369;49.862;9.908;2023-05-07T02:41:40;4.28;;;3.67;;
64875;SDS011;51369;49.862;9.908;2023-05-07T02:44:06;5.72;;;4.05;;
64875;SDS011;51369;49.862;9.908;2023-05-07T02:46:31;8.05;;;3.70;;
64875;SDS011;51369;49.862;9.908;2023-05-07T02:49:01;5.43;;;4.80;;
64875;SDS011;51369;49.862;9.908;2023-05-07T02:51:27;5.97;;;4.43;;
64875;SDS011;51369;49.862;9.908;2023-05-07T02:53:56;5.03;;;3.90;;
64875;SDS011;51369;49.862;9.908;2023-05-07T02:56:22;3.72;;;3.33;;
64875;SDS011;51369;49.862;9.908;2023-05-07T02:58:47;6.68;;;4.10;;
64875;SDS011;51369;49.862;9.908;2023-05-07T03:01:14;5.07;;;3.63;;
64875;SDS011;51369;49.862;9.908;2023-05-07T03:03:55;5.35;;;4.05;;
64875;SDS011;51369;49.862;9.908;2023-05-07T03:06:21;5.18;;;3.60;;
64875;SDS011;51369;49.862;9.908;2023-05-07T03:08:46;5.32;;;3.78;;
64875;SDS011;51369;49.862;9.908;2023-05-07T03:11:12;4.38;;;3.75;;
64875;SDS011;51369;49.862;9.908;2023-05-07T03:13:37;4.15;;;3.65;;
64875;SDS011;51369;49.862;9.908;2023-05-07T03:16:02;9.05;;;6.15;;
64875;SDS011;51369;49.862;9.908;2023-05-07T03:18:28;10.93;;;7.60;;
64875;SDS011;51369;49.862;9.908;2023-05-07T03:20:53;9.10;;;6.88;;
64875;SDS011;51369;49.862;9.908;2023-05-07T03:23:19;7.85;;;5.90;;
64875;SDS011;51369;49.862;9.908;2023-05-07T03:25:45;5.35;;;4.68;;
64875;SDS011;51369;49.862;9.908;2023-05-07T03:28:11;8.38;;;5.82;;
64875;SDS011;51369;49.862;9.908;2023-05-07T03:30:42;5.90;;;5.27;;
64875;SDS011;51369;49.862;9.908;2023-05-07T03:33:08;7.13;;;5.30;;
64875;SDS011;51369;49.862;9.908;2023-05-07T03:35:34;5.03;;;4.53;;
64875;SDS011;51369;49.862;9.908;2023-05-07T03:37:59;6.55;;;5.00;;
64875;SDS011;51369;49.862;9.908;2023-05-07T03:40:27;8.77;;;4.88;;
64875;SDS011;51369;49.862;9.908;2023-05-07T03:42:54;6.60;;;5.40;;
64875;SDS011;51369;49.862;9.908;2023-05-07T03:45:23;5.07;;;4.10;;
64875;SDS011;51369;49.862;9.908;2023-05-07T03:47:57;7.47;;;4.63;;
64875;SDS011;51369;49.862;9.908;2023-05-07T03:50:23;7.43;;;5.78;;
64875;SDS011;51369;49.862;9.908;2023-05-07T03:52:48;6.18;;;5.03;;
64875;SDS011;51369;49.862;9.908;2023-05-07T03:55:17;7.22;;;4.95;;
64875;SDS011;51369;49.862;9.908;2023-05-07T03:57:47;6.57;;;5.20;;
64875;SDS011;51369;49.862;9.908;2023-05-07T04:00:13;5.43;;;4.85;;
64875;SDS011;51369;49.862;9.908;2023-05-07T04:02:48;5.55;;;5.03;;
64875;SDS011;51369;49.862;9.908;2023-05-07T04:05:17;5.80;;;5.30;;
64875;SDS011;51369;49.862;9.908;2023-05-07T04:07:45;7.65;;;5.63;;
64875;SDS011;51369;49.862;9.908;2023-05-07T04:10:12;10.30;;;7.45;;
64875;SDS011;51369;49.862;9.908;2023-05-07T04:12:41;11.05;;;7.57;;
64875;SDS011;51369;49.862;9.908;2023-05-07T04:15:07;7.72;;;6.93;;
64875;SDS011;51369;49.862;9.908;2023-05-07T04:17:33;15.05;;;9.07;;
64875;SDS011;51369;49.862;9.908;2023-05-07T04:19:59;8.95;;;7.82;;
64875;SDS011;51369;49.862;9.908;2023-05-07T04:22:25;10.95;;;7.53;;
64875;SDS011;51369;49.862;9.908;2023-05-07T04:24:51;8.82;;;7.70;;
64875;SDS011;51369;49.862;9.908;2023-05-07T04:27:16;10.43;;;7.55;;
64875;SDS011;51369;49.862;9.908;2023-05-07T04:29:42;10.02;;;8.15;;
64875;SDS011;51369;49.862;9.908;2023-05-07T04:32:10;9.07;;;7.78;;
64875;SDS011;51369;49.862;9.908;2023-05-07T04:34:38;10.63;;;8.32;;
64875;SDS011;51369;49.862;9.908;2023-05-07T04:37:03;9.23;;;7.60;;
64875;SDS011;51369;49.862;9.908;2023-05-07T04:39:29;10.07;;;8.15;;
64875;SDS011;51369;49.862;9.908;2023-05-07T04:41:55;8.85;;;7.95;;
64875;SDS011;51369;49.862;9.908;2023-05-07T04:44:21;10.43;;;8.20;;
64875;SDS011;51369;49.862;9.908;2023-05-07T04:46:47;12.07;;;8.43;;
64875;SDS011;51369;49.862;9.908;2023-05-07T04:49:13;9.63;;;8.10;;
64875;SDS011;51369;49.862;9.908;2023-05-07T04:51:38;9.48;;;8.20;;
64875;SDS011;51369;49.862;9.908;2023-05-07T04:54:08;9.98;;;8.25;;
64875;SDS011;51369;49.862;9.908;2023-05-07T04:56:33;9.73;;;7.90;;
64875;SDS011;51369;49.862;9.908;2023-05-07T04:59:00;10.75;;;8.80;;
64875;SDS011;51369;49.862;9.908;2023-05-07T05:01:26;14.52;;;8.55;;
64875;SDS011;51369;49.862;9.908;2023-05-07T05:03:51;10.50;;;8.85;;
64875;SDS011;51369;49.862;9.908;2023-05-07T05:06:18;10.60;;;8.23;;
64875;SDS011;51369;49.862;9.908;2023-05-07T05:08:43;10.68;;;8.85;;
64875;SDS011;51369;49.862;9.908;2023-05-07T05:11:09;9.35;;;8.02;;
64875;SDS011;51369;49.862;9.908;2023-05-07T05:13:35;9.13;;;8.20;;
64875;SDS011;51369;49.862;9.908;2023-05-07T05:18:32;11.02;;;8.88;;
64875;SDS011;51369;49.862;9.908;2023-05-07T05:20:58;9.88;;;8.52;;
64875;SDS011;51369;49.862;9.908;2023-05-07T05:23:24;10.05;;;8.68;;
64875;SDS011;51369;49.862;9.908;2023-05-07T05:25:50;11.45;;;8.80;;
64875;SDS011;51369;49.862;9.908;2023-05-07T05:28:20;15.75;;;8.65;;
64875;SDS011;51369;49.862;9.908;2023-05-07T05:30:46;11.45;;;9.55;;
64875;SDS011;51369;49.862;9.908;2023-05-07T05:33:12;11.52;;;9.35;;
64875;SDS011;51369;49.862;9.908;2023-05-07T05:35:38;11.93;;;9.52;;
64875;SDS011;51369;49.862;9.908;2023-05-07T05:38:06;11.88;;;8.63;;
64875;SDS011;51369;49.862;9.908;2023-05-07T05:40:32;11.55;;;8.27;;
64875;SDS011;51369;49.862;9.908;2023-05-07T05:42:59;9.13;;;7.55;;
64875;SDS011;51369;49.862;9.908;2023-05-07T05:45:25;10.10;;;9.10;;
64875;SDS011;51369;49.862;9.908;2023-05-07T05:47:50;16.92;;;8.93;;
64875;SDS011;51369;49.862;9.908;2023-05-07T05:50:17;12.57;;;9.95;;
64875;SDS011;51369;49.862;9.908;2023-05-07T05:52:42;13.05;;;9.10;;
64875;SDS011;51369;49.862;9.908;2023-05-07T05:55:09;10.75;;;9.32;;
64875;SDS011;51369;49.862;9.908;2023-05-07T05:57:36;13.50;;;9.88;;
64875;SDS011;51369;49.862;9.908;2023-05-07T06:00:02;11.05;;;9.20;;
64875;SDS011;51369;49.862;9.908;2023-05-07T06:02:31;11.18;;;9.45;;
64875;SDS011;51369;49.862;9.908;2023-05-07T06:04:57;12.20;;;9.30;;
64875;SDS011;51369;49.862;9.908;2023-05-07T06:07:22;18.88;;;10.07;;
64875;SDS011;51369;49.862;9.908;2023-05-07T06:09:48;11.85;;;10.07;;
64875;SDS011;51369;49.862;9.908;2023-05-07T06:12:14;14.27;;;9.73;;
64875;SDS011;51369;49.862;9.908;2023-05-07T06:14:42;10.13;;;8.75;;
64875;SDS011;51369;49.862;9.908;2023-05-07T06:17:08;11.68;;;9.75;;
64875;SDS011;51369;49.862;9.908;2023-05-07T06:19:33;12.95;;;9.70;;
64875;SDS011;51369;49.862;9.908;2023-05-07T06:21:59;15.15;;;10.43;;
64875;SDS011;51369;49.862;9.908;2023-05-07T06:24:28;14.15;;;9.45;;
64875;SDS011;51369;49.862;9.908;2023-05-07T06:26:53;12.30;;;9.40;;
64875;SDS011;51369;49.862;9.908;2023-05-07T06:29:19;18.40;;;10.10;;
64875;SDS011;51369;49.862;9.908;2023-05-07T06:31:45;11.90;;;9.30;;
64875;SDS011;51369;49.862;9.908;2023-05-07T06:34:10;14.00;;;10.88;;
64875;SDS011;51369;49.862;9.908;2023-05-07T06:36:40;11.27;;;8.75;;
64875;SDS011;51369;49.862;9.908;2023-05-07T06:39:17;10.75;;;9.57;;
64875;SDS011;51369;49.862;9.908;2023-05-07T06:41:43;12.35;;;10.50;;
64875;SDS011;51369;49.862;9.908;2023-05-07T06:44:19;12.57;;;10.85;;
64875;SDS011;51369;49.862;9.908;2023-05-07T06:46:56;10.70;;;9.52;;
64875;SDS011;51369;49.862;9.908;2023-05-07T06:49:22;12.80;;;9.90;;
64875;SDS011;51369;49.862;9.908;2023-05-07T06:51:48;11.45;;;10.15;;
64875;SDS011;51369;49.862;9.908;2023-05-07T06:54:13;16.35;;;10.80;;
64875;SDS011;51369;49.862;9.908;2023-05-07T06:56:40;15.43;;;10.73;;
64875;SDS011;51369;49.862;9.908;2023-05-07T06:59:06;11.77;;;10.15;;
64875;SDS011;51369;49.862;9.908;2023-05-07T07:01:36;11.77;;;10.15;;
64875;SDS011;51369;49.862;9.908;2023-05-07T07:04:02;16.00;;;10.25;;
64875;SDS011;51369;49.862;9.908;2023-05-07T07:06:29;12.90;;;10.05;;
64875;SDS011;51369;49.862;9.908;2023-05-07T07:08:56;12.65;;;9.88;;
64875;SDS011;51369;49.862;9.908;2023-05-07T07:11:23;11.52;;;9.77;;
64875;SDS011;51369;49.862;9.908;2023-05-07T07:13:49;16.50;;;10.00;;
64875;SDS011;51369;49.862;9.908;2023-05-07T07:16:16;12.23;;;10.93;;
64875;SDS011;51369;49.862;9.908;2023-05-07T07:18:42;13.57;;;10.20;;
64875;SDS011;51369;49.862;9.908;2023-05-07T07:21:07;11.88;;;10.18;;
64875;SDS011;51369;49.862;9.908;2023-05-07T07:23:33;12.82;;;10.70;;
64875;SDS011;51369;49.862;9.908;2023-05-07T07:25:58;13.18;;;11.10;;
64875;SDS011;51369;49.862;9.908;2023-05-07T07:28:25;11.40;;;9.98;;
64875;SDS011;51369;49.862;9.908;2023-05-07T07:30:51;14.20;;;10.45;;
64875;SDS011;51369;49.862;9.908;2023-05-07T07:33:17;12.38;;;9.93;;
64875;SDS011;51369;49.862;9.908;2023-05-07T07:35:43;11.63;;;10.27;;
64875;SDS011;51369;49.862;9.908;2023-05-07T07:38:09;11.50;;;10.30;;
64875;SDS011;51369;49.862;9.908;2023-05-07T07:40:34;12.80;;;9.88;;
64875;SDS011;51369;49.862;9.908;2023-05-07T07:43:01;12.23;;;10.02;;
64875;SDS011;51369;49.862;9.908;2023-05-07T07:45:27;13.95;;;9.32;;
64875;SDS011;51369;49.862;9.908;2023-05-07T07:47:53;12.00;;;10.25;;
64875;SDS011;51369;49.862;9.908;2023-05-07T07:50:18;12.32;;;10.15;;
64875;SDS011;51369;49.862;9.908;2023-05-07T07:52:44;10.25;;;9.18;;
64875;SDS011;51369;49.862;9.908;2023-05-07T07:55:14;10.65;;;9.55;;
64875;SDS011;51369;49.862;9.908;2023-05-07T07:57:43;11.43;;;9.57;;
64875;SDS011;51369;49.862;9.908;2023-05-07T08:00:10;13.85;;;10.18;;
64875;SDS011;51369;49.862;9.908;2023-05-07T08:02:41;12.07;;;9.10;;
64875;SDS011;51369;49.862;9.908;2023-05-07T08:05:08;10.55;;;9.52;;
64875;SDS011;51369;49.862;9.908;2023-05-07T08:07:33;13.45;;;9.98;;
64875;SDS011;51369;49.862;9.908;2023-05-07T08:09:59;11.90;;;8.63;;
64875;SDS011;51369;49.862;9.908;2023-05-07T08:12:25;12.90;;;9.75;;
64875;SDS011;51369;49.862;9.908;2023-05-07T08:14:52;9.73;;;8.73;;
64875;SDS011;51369;49.862;9.908;2023-05-07T08:17:18;11.43;;;8.93;;
64875;SDS011;51369;49.862;9.908;2023-05-07T08:19:45;9.85;;;8.65;;
64875;SDS011;51369;49.862;9.908;2023-05-07T08:22:12;11.38;;;9.80;;
64875;SDS011;51369;49.862;9.908;2023-05-07T08:24:38;12.75;;;9.52;;
64875;SDS011;51369;49.862;9.908;2023-05-07T08:27:03;11.57;;;8.73;;
64875;SDS011;51369;49.862;9.908;2023-05-07T08:29:29;11.07;;;9.10;;
64875;SDS011;51369;49.862;9.908;2023-05-07T08:31:55;9.30;;;8.38;;
64875;SDS011;51369;49.862;9.908;2023-05-07T08:34:21;14.32;;;9.13;;
64875;SDS011;51369;49.862;9.908;2023-05-07T08:36:48;10.23;;;8.80;;
64875;SDS011;51369;49.862;9.908;2023-05-07T08:39:16;10.15;;;9.00;;
64875;SDS011;51369;49.862;9.908;2023-05-07T08:41:46;10.15;;;8.80;;
64875;SDS011;51369;49.862;9.908;2023-05-07T08:44:13;11.13;;;9.35;;
64875;SDS011;51369;49.862;9.908;2023-05-07T08:46:41;11.63;;;8.38;;
64875;SDS011;51369;49.862;9.908;2023-05-07T08:49:07;10.48;;;8.35;;
64875;SDS011;51369;49.862;9.908;2023-05-07T08:51:33;10.15;;;9.07;;
64875;SDS011;51369;49.862;9.908;2023-05-07T08:53:59;10.05;;;8.63;;
64875;SDS011;51369;49.862;9.908;2023-05-07T08:56:30;12.07;;;8.70;;
64875;SDS011;51369;49.862;9.908;2023-05-07T08:58:56;10.30;;;8.50;;
64875;SDS011;51369;49.862;9.908;2023-05-07T09:01:24;10.35;;;9.25;;
64875;SDS011;51369;49.862;9.908;2023-05-07T09:03:51;9.73;;;8.75;;
64875;SDS011;51369;49.862;9.908;2023-05-07T09:06:18;10.75;;;8.90;;
64875;SDS011;51369;49.862;9.908;2023-05-07T09:08:51;11.52;;;8.45;;
64875;SDS011;51369;49.862;9.908;2023-05-07T09:11:20;9.52;;;8.00;;
64875;SDS011;51369;49.862;9.908;2023-05-07T09:13:48;9.65;;;8.65;;
64875;SDS011;51369;49.862;9.908;2023-05-07T09:16:15;13.15;;;9.27;;
64875;SDS011;51369;49.862;9.908;2023-05-07T09:18:44;10.70;;;9.60;;
64875;SDS011;51369;49.862;9.908;2023-05-07T09:21:15;12.18;;;9.20;;
64875;SDS011;51369;49.862;9.908;2023-05-07T09:23:41;9.45;;;8.55;;
64875;SDS011;51369;49.862;9.908;2023-05-07T09:26:08;15.45;;;10.02;;
64875;SDS011;51369;49.862;9.908;2023-05-07T09:28:38;9.70;;;8.27;;
64875;SDS011;51369;49.862;9.908;2023-05-07T09:31:05;10.70;;;9.13;;
64875;SDS011;51369;49.862;9.908;2023-05-07T09:33:31;14.75;;;8.80;;
64875;SDS011;51369;49.862;9.908;2023-05-07T09:35:58;14.15;;;9.68;;
64875;SDS011;51369;49.862;9.908;2023-05-07T09:38:23;11.55;;;9.05;;
64875;SDS011;51369;49.862;9.908;2023-05-07T09:41:07;10.23;;;8.50;;
64875;SDS011;51369;49.862;9.908;2023-05-07T09:43:41;11.95;;;9.85;;
64875;SDS011;51369;49.862;9.908;2023-05-07T09:46:12;12.07;;;8.38;;
64875;SDS011;51369;49.862;9.908;2023-05-07T09:48:43;9.27;;;8.32;;
64875;SDS011;51369;49.862;9.908;2023-05-07T09:51:34;9.40;;;7.75;;
64875;SDS011;51369;49.862;9.908;2023-05-07T09:54:03;13.15;;;8.45;;
64875;SDS011;51369;49.862;9.908;2023-05-07T09:56:32;11.70;;;8.30;;
64875;SDS011;51369;49.862;9.908;2023-05-07T09:58:59;9.40;;;7.15;;
64875;SDS011;51369;49.862;9.908;2023-05-07T10:01:26;10.65;;;7.60;;
64875;SDS011;51369;49.862;9.908;2023-05-07T10:03:52;10.93;;;7.65;;
64875;SDS011;51369;49.862;9.908;2023-05-07T10:06:21;9.30;;;7.65;;
64875;SDS011;51369;49.862;9.908;2023-05-07T10:08:47;8.80;;;7.53;;
64875;SDS011;51369;49.862;9.908;2023-05-07T10:11:13;8.23;;;7.13;;
64875;SDS011;51369;49.862;9.908;2023-05-07T10:13:42;10.85;;;7.35;;
64875;SDS011;51369;49.862;9.908;2023-05-07T10:16:08;9.18;;;8.18;;
64875;SDS011;51369;49.862;9.908;2023-05-07T10:18:40;8.75;;;7.88;;
64875;SDS011;51369;49.862;9.908;2023-05-07T10:21:13;9.73;;;7.87;;
64875;SDS011;51369;49.862;9.908;2023-05-07T10:23:44;9.82;;;8.05;;
64875;SDS011;51369;49.862;9.908;2023-05-07T10:26:11;9.43;;;7.45;;
64875;SDS011;51369;49.862;9.908;2023-05-07T10:28:38;9.65;;;8.65;;
64875;SDS011;51369;49.862;9.908;2023-05-07T10:31:18;9.60;;;7.72;;
64875;SDS011;51369;49.862;9.908;2023-05-07T10:34:01;8.75;;;7.32;;
64875;SDS011;51369;49.862;9.908;2023-05-07T10:36:34;8.30;;;7.22;;
64875;SDS011;51369;49.862;9.908;2023-05-07T10:39:02;7.10;;;6.13;;
64875;SDS011;51369;49.862;9.908;2023-05-07T10:41:27;7.95;;;7.15;;
64875;SDS011;51369;49.862;9.908;2023-05-07T10:43:53;6.53;;;5.50;;
64875;SDS011;51369;49.862;9.908;2023-05-07T10:46:23;9.07;;;6.32;;
64875;SDS011;51369;49.862;9.908;2023-05-07T10:49:09;8.07;;;7.00;;
64875;SDS011;51369;49.862;9.908;2023-05-07T10:51:44;7.05;;;6.35;;
64875;SDS011;51369;49.862;9.908;2023-05-07T10:54:19;7.57;;;6.15;;
64875;SDS011;51369;49.862;9.908;2023-05-07T10:57:09;7.80;;;5.90;;
64875;SDS011;51369;49.862;9.908;2023-05-07T11:05:32;8.45;;;5.80;;
64875;SDS011;51369;49.862;9.908;2023-05-07T11:11:20;9.15;;;6.53;;
64875;SDS011;51369;49.862;9.908;2023-05-07T11:14:42;8.40;;;6.43;;
64875;SDS011;51369;49.862;9.908;2023-05-07T11:17:13;6.43;;;5.32;;
64875;SDS011;51369;49.862;9.908;2023-05-07T11:19:54;6.32;;;4.68;;
64875;SDS011;51369;49.862;9.908;2023-05-07T11:25:05;4.90;;;4.45;;
64875;SDS011;51369;49.862;9.908;2023-05-07T11:27:32;5.32;;;4.82;;
64875;SDS011;51369;49.862;9.908;2023-05-07T11:29:58;5.18;;;4.45;;
64875;SDS011;51369;49.862;9.908;2023-05-07T11:32:31;4.60;;;4.20;;
64875;SDS011;51369;49.862;9.908;2023-05-07T11:34:58;6.40;;;5.20;;
64875;SDS011;51369;49.862;9.908;2023-05-07T11:37:25;5.82;;;4.63;;
64875;SDS011;51369;49.862;9.908;2023-05-07T11:40:03;7.97;;;4.93;;
64875;SDS011;51369;49.862;9.908;2023-05-07T11:42:29;4.95;;;4.53;;
64875;SDS011;51369;49.862;9.908;2023-05-07T11:44:56;6.38;;;5.35;;
64875;SDS011;51369;49.862;9.908;2023-05-07T11:47:22;6.07;;;4.80;;
64875;SDS011;51369;49.862;9.908;2023-05-07T11:49:49;5.22;;;4.63;;
64875;SDS011;51369;49.862;9.908;2023-05-07T11:52:16;8.00;;;4.80;;
64875;SDS011;51369;49.862;9.908;2023-05-07T11:54:52;5.80;;;4.80;;
64875;SDS011;51369;49.862;9.908;2023-05-07T11:57:20;4.95;;;4.55;;
64875;SDS011;51369;49.862;9.908;2023-05-07T11:59:46;5.50;;;4.60;;
64875;SDS011;51369;49.862;9.908;2023-05-07T12:02:14;7.40;;;5.43;;
64875;SDS011;51369;49.862;9.908;2023-05-07T12:04:40;4.90;;;4.30;;
64875;SDS011;51369;49.862;9.908;2023-05-07T12:07:13;6.20;;;4.38;;
64875;SDS011;51369;49.862;9.908;2023-05-07T12:09:40;6.55;;;5.28;;
64875;SDS011;51369;49.862;9.908;2023-05-07T12:12:06;5.32;;;4.82;;
64875;SDS011;51369;49.862;9.908;2023-05-07T12:14:32;7.53;;;5.03;;
64875;SDS011;51369;49.862;9.908;2023-05-07T12:17:01;5.63;;;5.05;;
64875;SDS011;51369;49.862;9.908;2023-05-07T12:19:28;4.88;;;4.18;;
64875;SDS011;51369;49.862;9.908;2023-05-07T12:21:56;8.57;;;5.32;;
64875;SDS011;51369;49.862;9.908;2023-05-07T12:24:22;7.55;;;5.55;;
64875;SDS011;51369;49.862;9.908;2023-05-07T12:26:47;5.72;;;5.22;;
64875;SDS011;51369;49.862;9.908;2023-05-07T12:29:13;6.07;;;5.18;;
64875;SDS011;51369;49.862;9.908;2023-05-07T12:31:43;7.15;;;4.70;;
64875;SDS011;51369;49.862;9.908;2023-05-07T12:34:10;4.53;;;4.13;;
64875;SDS011;51369;49.862;9.908;2023-05-07T12:36:37;8.60;;;4.60;;
64875;SDS011;51369;49.862;9.908;2023-05-07T12:39:04;5.97;;;4.88;;
64875;SDS011;51369;49.862;9.908;2023-05-07T12:41:51;5.20;;;4.70;;
64875;SDS011;51369;49.862;9.908;2023-05-07T12:44:24;4.78;;;4.28;;
64875;SDS011;51369;49.862;9.908;2023-05-07T12:46:51;5.28;;;4.30;;
64875;SDS011;51369;49.862;9.908;2023-05-07T12:49:16;23.48;;;21.00;;
64875;SDS011;51369;49.862;9.908;2023-05-07T12:51:43;6.97;;;4.53;;
64875;SDS011;51369;49.862;9.908;2023-05-07T12:54:09;4.03;;;3.20;;
64875;SDS011;51369;49.862;9.908;2023-05-07T12:56:38;3.92;;;3.50;;
64875;SDS011;51369;49.862;9.908;2023-05-07T12:59:05;4.47;;;3.85;;
64875;SDS011;51369;49.862;9.908;2023-05-07T13:01:30;4.35;;;3.95;;
64875;SDS011;51369;49.862;9.908;2023-05-07T13:04:00;4.85;;;4.45;;
64875;SDS011;51369;49.862;9.908;2023-05-07T13:06:26;4.15;;;3.75;;
64875;SDS011;51369;49.862;9.908;2023-05-07T13:08:51;5.00;;;4.60;;
64875;SDS011;51369;49.862;9.908;2023-05-07T13:11:17;4.70;;;4.30;;
64875;SDS011;51369;49.862;9.908;2023-05-07T13:13:42;4.25;;;3.90;;
64875;SDS011;51369;49.862;9.908;2023-05-07T13:16:09;4.65;;;3.90;;
64875;SDS011;51369;49.862;9.908;2023-05-07T13:18:37;5.45;;;4.45;;
64875;SDS011;51369;49.862;9.908;2023-05-07T13:21:04;5.00;;;4.47;;
64875;SDS011;51369;49.862;9.908;2023-05-07T13:23:29;5.05;;;3.90;;
64875;SDS011;51369;49.862;9.908;2023-05-07T13:25:55;4.00;;;3.70;;
64875;SDS011;51369;49.862;9.908;2023-05-07T13:28:21;5.00;;;3.60;;
64875;SDS011;51369;49.862;9.908;2023-05-07T13:30:47;4.07;;;3.78;;
64875;SDS011;51369;49.862;9.908;2023-05-07T13:33:13;5.18;;;3.50;;
64875;SDS011;51369;49.862;9.908;2023-05-07T13:35:38;4.13;;;3.55;;
64875;SDS011;51369;49.862;9.908;2023-05-07T13:38:04;4.93;;;3.90;;
64875;SDS011;51369;49.862;9.908;2023-05-07T13:40:30;8.20;;;3.80;;
64875;SDS011;51369;49.862;9.908;2023-05-07T13:42:58;4.93;;;3.20;;
64875;SDS011;51369;49.862;9.908;2023-05-07T13:45:25;3.78;;;3.47;;
64875;SDS011;51369;49.862;9.908;2023-05-07T13:47:51;7.45;;;3.45;;
64875;SDS011;51369;49.862;9.908;2023-05-07T13:50:17;4.40;;;3.72;;
64875;SDS011;51369;49.862;9.908;2023-05-07T13:52:43;4.72;;;3.85;;
64875;SDS011;51369;49.862;9.908;2023-05-07T13:55:16;4.22;;;3.92;;
64875;SDS011;51369;49.862;9.908;2023-05-07T13:57:46;6.70;;;4.10;;
64875;SDS011;51369;49.862;9.908;2023-05-07T14:00:12;7.78;;;4.72;;
64875;SDS011;51369;49.862;9.908;2023-05-07T14:02:42;4.32;;;3.92;;
64875;SDS011;51369;49.862;9.908;2023-05-07T14:05:07;4.80;;;4.30;;
64875;SDS011;51369;49.862;9.908;2023-05-07T14:07:34;4.93;;;4.50;;
64875;SDS011;51369;49.862;9.908;2023-05-07T14:10:00;4.50;;;4.10;;
64875;SDS011;51369;49.862;9.908;2023-05-07T14:12:26;4.28;;;3.88;;
64875;SDS011;51369;49.862;9.908;2023-05-07T14:14:52;4.25;;;3.95;;
64875;SDS011;51369;49.862;9.908;2023-05-07T14:17:17;5.63;;;4.47;;
64875;SDS011;51369;49.862;9.908;2023-05-07T14:19:43;5.90;;;3.90;;
64875;SDS011;51369;49.862;9.908;2023-05-07T14:22:09;3.83;;;3.40;;
64875;SDS011;51369;49.862;9.908;2023-05-07T14:24:34;4.95;;;4.07;;
64875;SDS011;51369;49.862;9.908;2023-05-07T14:27:00;9.32;;;4.35;;
64875;SDS011;51369;49.862;9.908;2023-05-07T14:29:25;6.07;;;3.97;;
64875;SDS011;51369;49.862;9.908;2023-05-07T14:31:51;4.55;;;4.05;;
64875;SDS011;51369;49.862;9.908;2023-05-07T14:34:16;8.05;;;4.13;;
64875;SDS011;51369;49.862;9.908;2023-05-07T14:36:41;4.50;;;4.10;;
64875;SDS011;51369;49.862;9.908;2023-05-07T14:39:07;5.53;;;4.57;;
64875;SDS011;51369;49.862;9.908;2023-05-07T14:41:33;4.40;;;4.00;;
64875;SDS011;51369;49.862;9.908;2023-05-07T14:43:58;4.95;;;4.45;;
64875;SDS011;51369;49.862;9.908;2023-05-07T14:46:24;6.97;;;4.38;;
64875;SDS011;51369;49.862;9.908;2023-05-07T14:48:49;4.68;;;4.20;;
64875;SDS011;51369;49.862;9.908;2023-05-07T14:51:15;5.80;;;4.38;;
64875;SDS011;51369;49.862;9.908;2023-05-07T14:53:40;6.88;;;4.32;;
64875;SDS011;51369;49.862;9.908;2023-05-07T14:56:06;5.97;;;3.88;;
64875;SDS011;51369;49.862;9.908;2023-05-07T14:58:33;8.50;;;4.03;;